Main page
METAR-TAF:

METAR-TAF

Airports :

Kärdla Airport

Kärdla, Estonia

latitude: 58-59N, longitude: 022-49E, elevation: 5 m

Current weather observation

The report was made 1 hour and 18 minutes ago, at 11:50 UTC
Wind 3 kt from the South/Southeast
Temperature 3°C
Humidity 87%
Pressure 1033 hPa
Visibility 10 km or more
Broken clouds at a height of 900 ft
Overcast at a height of 2100 ft

METAR: EEKA 211150Z 16003KT 9999 BKN009 OVC021 03/01 Q1033

Time: 15:08 (13:08 UTC)

Forecast

The report was made 9 hours and 8 minutes ago, at 04:00 UTC
Forecast valid from 21 at 05 UTC to 21 at 11 UTC
Wind 6 kt from the East
Visibility 10 km or more
Overcast at a height of 1500 ft
Probability 40% :
Temporary
from 21 at 05 UTC to 21 at 11 UTC
Visibility: 5000 m
Broken clouds at a height of 800 ft
Scattered clouds at a height of 1500 ft, Cumulonimbus.
rain showers

TAF: EEKA 210400Z 2105/2111 10006KT 9999 OVC015 PROB40 TEMPO 2105/2111 5000 SHRA BKN008 SCT015CB

Weather observations and forecasts of more than 4000 airports (METAR and TAF reports).

The available stations are represented by yellow and red dots on the map.

Hover mouse over dot to see the name of the station.

Then click to see weather observations and forecasts.

To change the map : click on the green buttons with a black cross to zoom in, on the green button with a dash to zoom out, or on the green arrows for adjacent maps.


METAR-TAF: